Time;durP1;ratioP1;P1;durP2;ratioP2;P2;SDS_P1;SDS_P2;PMS_P1;PMS_P2;Temp;Humidity;BMP_temperature;BMP_pressure;BME280_temperature;BME280_humidity;BME280_pressure;Samples;Min_cycle;Max_cycle;Signal;HPM_P1;HPM_P2
2021/04/04 00:01:33;;;;;;;11.98;3.45;;;8.40;57.30;;;;;;5118475;28;20071;-73
2021/04/04 00:03:59;;;;;;;10.48;3.78;;;8.50;57.40;;;;;;5120685;28;20044;-73
2021/04/04 00:06:24;;;;;;;12.80;3.70;;;8.50;57.40;;;;;;5120194;28;20076;-73
2021/04/04 00:08:50;;;;;;;10.05;3.45;;;8.50;57.40;;;;;;5119505;28;20047;-73
2021/04/04 00:11:16;;;;;;;12.02;3.60;;;8.50;57.50;;;;;;5120095;28;20058;-73
2021/04/04 00:13:42;;;;;;;15.82;3.80;;;8.50;57.50;;;;;;5119210;28;20081;-74
2021/04/04 00:16:07;;;;;;;13.77;3.78;;;8.50;57.60;;;;;;5119824;28;20108;-74
2021/04/04 00:18:33;;;;;;;11.75;3.95;;;8.40;57.60;;;;;;5118194;28;20435;-74
2021/04/04 00:21:00;;;;;;;16.25;4.47;;;8.40;57.70;;;;;;5119849;28;20163;-74
2021/04/04 00:23:26;;;;;;;11.07;4.05;;;8.40;57.70;;;;;;5118537;28;20047;-74
2021/04/04 00:25:52;;;;;;;13.18;3.55;;;8.50;57.80;;;;;;5118182;28;20093;-74
2021/04/04 00:28:18;;;;;;;11.35;3.75;;;8.50;57.90;;;;;;5119384;28;20040;-73
2021/04/04 00:30:44;;;;;;;10.90;3.45;;;8.50;57.90;;;;;;5117768;28;20498;-74
2021/04/04 00:33:10;;;;;;;14.45;3.72;;;8.40;58.00;;;;;;5118427;28;20046;-73
2021/04/04 00:35:36;;;;;;;13.23;3.90;;;8.40;58.00;;;;;;5119106;28;20056;-73
2021/04/04 00:38:02;;;;;;;15.20;4.50;;;8.40;58.20;;;;;;5137158;27;20120;-73
2021/04/04 00:40:32;;;;;;;12.65;5.00;;;8.40;58.20;;;;;;5121637;27;20043;-73
2021/04/04 00:42:58;;;;;;;13.52;4.47;;;8.40;58.20;;;;;;5140141;27;20051;-73
2021/04/04 00:45:36;;;;;;;14.70;4.03;;;8.50;58.30;;;;;;5140035;27;20513;-73
2021/04/04 00:48:02;;;;;;;12.38;3.80;;;8.40;58.40;;;;;;5139933;27;20471;-73
2021/04/04 00:50:30;;;;;;;10.75;3.70;;;8.40;58.30;;;;;;5139955;27;20065;-73
2021/04/04 00:52:58;;;;;;;11.50;3.53;;;8.40;58.40;;;;;;5139178;27;20134;-73
2021/04/04 00:55:24;;;;;;;8.38;3.58;;;8.40;58.40;;;;;;5104287;27;20075;-73
2021/04/04 00:57:51;;;;;;;12.50;3.20;;;8.40;58.30;;;;;;5139468;27;20126;-74
2021/04/04 01:00:19;;;;;;;10.82;3.03;;;8.40;58.30;;;;;;5139856;27;20047;-73
2021/04/04 01:02:45;;;;;;;9.73;3.10;;;8.40;58.30;;;;;;5120673;27;20051;-73
2021/04/04 01:05:36;;;;;;;11.30;3.10;;;8.40;58.40;;;;;;5124158;27;20462;-73
2021/04/04 01:08:02;;;;;;;9.15;3.17;;;8.40;58.50;;;;;;5105359;27;20361;-73
2021/04/04 01:10:30;;;;;;;14.38;4.32;;;8.40;58.40;;;;;;5121271;27;20065;-73
2021/04/04 01:13:11;;;;;;;13.68;3.60;;;8.40;58.50;;;;;;5138980;27;20051;-73
2021/04/04 01:15:40;;;;;;;13.15;4.00;;;8.40;58.60;;;;;;5120542;27;20062;-73
2021/04/04 01:18:16;;;;;;;11.70;3.90;;;8.40;58.50;;;;;;5103439;27;20043;-73
2021/04/04 01:20:48;;;;;;;11.10;3.05;;;8.40;58.70;;;;;;5120302;27;20162;-73
2021/04/04 01:23:37;;;;;;;13.88;3.33;;;8.40;58.70;;;;;;5121563;27;20035;-73
2021/04/04 01:26:13;;;;;;;11.43;3.47;;;8.40;58.80;;;;;;5112912;27;20062;-73
2021/04/04 01:28:39;;;;;;;12.40;3.45;;;8.30;58.90;;;;;;5138751;27;20376;-74
2021/04/04 01:31:08;;;;;;;10.05;2.78;;;8.40;58.90;;;;;;5087142;27;20047;-71
2021/04/04 01:33:35;;;;;;;9.90;3.25;;;8.30;59.00;;;;;;5138714;27;20043;-73
2021/04/04 01:36:01;;;;;;;12.00;3.42;;;8.40;59.10;;;;;;5138752;27;20039;-73
2021/04/04 01:38:28;;;;;;;10.15;2.88;;;8.30;59.30;;;;;;5103780;27;20047;-72
2021/04/04 01:40:58;;;;;;;14.07;3.13;;;8.30;59.40;;;;;;5138424;27;20035;-73
2021/04/04 01:43:24;;;;;;;11.63;3.22;;;8.40;59.70;;;;;;5139001;27;20507;-73
2021/04/04 01:45:50;;;;;;;9.00;2.60;;;8.30;59.80;;;;;;5102988;27;20043;-73
2021/04/04 01:48:15;;;;;;;13.55;3.40;;;8.30;59.90;;;;;;5103577;27;20077;-73
2021/04/04 01:50:41;;;;;;;10.27;3.03;;;8.20;59.90;;;;;;5102987;27;20035;-74
2021/04/04 01:53:08;;;;;;;11.73;3.45;;;8.30;60.00;;;;;;5120321;27;20035;-73
2021/04/04 01:55:34;;;;;;;11.68;3.97;;;8.30;60.20;;;;;;5120037;27;20039;-74
2021/04/04 01:58:00;;;;;;;10.70;3.30;;;8.20;60.10;;;;;;5119905;27;20057;-74
2021/04/04 02:00:27;;;;;;;9.02;2.95;;;8.20;60.30;;;;;;5103298;27;20043;-74
2021/04/04 02:02:53;;;;;;;11.98;3.35;;;8.30;61.10;;;;;;5119641;27;20051;-74
2021/04/04 02:05:18;;;;;;;13.50;3.72;;;8.20;60.40;;;;;;5103369;27;20039;-73
2021/04/04 02:07:46;;;;;;;10.70;3.47;;;8.20;60.50;;;;;;5138286;27;20035;-73
2021/04/04 02:10:17;;;;;;;10.52;3.58;;;8.20;60.80;;;;;;5103253;27;20069;-74
2021/04/04 02:12:43;;;;;;;10.25;3.15;;;8.30;60.80;;;;;;5119356;27;20047;-74
2021/04/04 02:15:13;;;;;;;10.57;3.35;;;8.30;60.90;;;;;;5120118;27;20121;-73
2021/04/04 02:17:39;;;;;;;13.70;4.10;;;8.20;61.10;;;;;;5103081;27;20046;-73
2021/04/04 02:20:11;;;;;;;9.65;3.30;;;8.20;60.90;;;;;;5119986;27;20133;-73
2021/04/04 02:22:37;;;;;;;12.20;3.93;;;8.20;61.10;;;;;;5104475;28;20395;-73
2021/04/04 02:25:06;;;;;;;14.70;3.15;;;8.20;61.30;;;;;;5120071;28;20359;-73
2021/04/04 02:27:31;;;;;;;13.35;3.45;;;8.20;61.30;;;;;;5120682;28;20575;-74
2021/04/04 02:29:57;;;;;;;11.35;3.95;;;8.20;61.20;;;;;;5138358;28;20039;-73
2021/04/04 02:32:23;;;;;;;12.80;3.72;;;8.30;61.00;;;;;;5120276;28;20099;-74
2021/04/04 02:34:49;;;;;;;10.07;3.30;;;8.20;61.20;;;;;;5102549;28;20411;-73
2021/04/04 02:37:15;;;;;;;6.90;2.70;;;8.30;61.10;;;;;;5119653;28;20043;-73
2021/04/04 02:39:52;;;;;;;9.25;2.45;;;8.20;61.20;;;;;;5102916;28;20372;-73
2021/04/04 02:42:21;;;;;;;10.52;3.60;;;8.20;61.50;;;;;;5119751;28;20035;-74
2021/04/04 02:44:47;;;;;;;6.65;3.13;;;8.20;61.20;;;;;;5138390;28;20124;-74
2021/04/04 02:47:13;;;;;;;13.93;3.88;;;8.10;61.40;;;;;;5121032;28;20077;-73
2021/04/04 02:49:38;;;;;;;11.77;3.80;;;8.20;61.50;;;;;;5120551;28;20443;-73
2021/04/04 02:52:06;;;;;;;11.60;3.55;;;8.20;61.40;;;;;;5119411;28;20039;-73
2021/04/04 02:54:32;;;;;;;11.88;3.60;;;8.20;61.50;;;;;;5102860;28;20047;-73
2021/04/04 02:56:58;;;;;;;9.80;3.72;;;8.20;61.50;;;;;;5118869;28;20075;-73
2021/04/04 02:59:26;;;;;;;14.65;3.45;;;8.20;61.70;;;;;;5120224;28;20048;-73
2021/04/04 03:01:52;;;;;;;10.35;2.70;;;8.20;61.70;;;;;;5102925;28;20047;-73
2021/04/04 03:04:19;;;;;;;11.85;3.10;;;8.20;61.60;;;;;;5103061;28;20050;-73
2021/04/04 03:06:44;;;;;;;10.77;3.17;;;8.20;61.60;;;;;;5102802;28;20047;-73
2021/04/04 03:09:11;;;;;;;10.57;2.97;;;8.20;61.80;;;;;;5085415;28;20039;-73
2021/04/04 03:11:37;;;;;;;10.38;2.88;;;8.20;61.60;;;;;;5119706;28;20061;-72
2021/04/04 03:14:03;;;;;;;11.27;2.80;;;8.20;61.70;;;;;;5101814;28;20055;-72
2021/04/04 03:16:29;;;;;;;9.73;2.70;;;8.20;62.00;;;;;;5101538;28;20050;-72
2021/04/04 03:18:54;;;;;;;13.85;3.63;;;8.20;61.80;;;;;;5116600;28;20046;-73
2021/04/04 03:21:20;;;;;;;9.60;2.85;;;8.20;62.00;;;;;;5099905;28;20072;-73
2021/04/04 03:23:46;;;;;;;7.57;2.42;;;8.20;62.10;;;;;;5117307;28;20160;-73
2021/04/04 03:26:12;;;;;;;12.23;2.95;;;8.20;62.00;;;;;;5118526;28;20057;-73
2021/04/04 03:28:38;;;;;;;9.95;2.92;;;8.20;62.30;;;;;;5102138;27;20039;-73
2021/04/04 03:31:04;;;;;;;10.73;2.85;;;8.20;62.20;;;;;;5121420;27;20414;-73
2021/04/04 03:33:30;;;;;;;9.05;2.60;;;8.10;62.10;;;;;;5122706;27;20050;-73
2021/04/04 03:35:56;;;;;;;7.63;2.80;;;8.20;62.30;;;;;;5122432;27;20042;-74
2021/04/04 03:38:23;;;;;;;9.90;2.85;;;8.20;62.30;;;;;;5106005;27;20082;-73
2021/04/04 03:40:50;;;;;;;9.82;2.80;;;8.20;62.30;;;;;;5106007;27;20046;-73
2021/04/04 03:43:25;;;;;;;8.18;2.53;;;8.20;62.50;;;;;;5122380;27;20047;-73
2021/04/04 03:46:01;;;;;;;10.30;2.85;;;8.20;62.60;;;;;;5106404;27;20405;-73
2021/04/04 03:48:28;;;;;;;8.38;2.70;;;8.20;62.80;;;;;;5106062;27;20035;-73
2021/04/04 03:50:54;;;;;;;8.20;2.40;;;8.20;62.60;;;;;;5122376;27;20051;-73
2021/04/04 03:53:21;;;;;;;9.10;2.60;;;8.20;62.50;;;;;;5106184;27;20068;-72
2021/04/04 03:55:52;;;;;;;9.32;2.80;;;8.20;62.50;;;;;;5123156;27;20043;-73
2021/04/04 03:58:22;;;;;;;9.18;2.60;;;8.10;62.50;;;;;;5106190;27;20051;-73
2021/04/04 04:00:48;;;;;;;10.63;2.50;;;8.10;62.50;;;;;;5122694;27;20059;-74
2021/04/04 04:03:14;;;;;;;9.13;2.85;;;8.10;62.60;;;;;;5088058;27;20039;-73
2021/04/04 04:05:40;;;;;;;11.55;2.72;;;8.10;62.60;;;;;;5122544;27;20046;-73
2021/04/04 04:08:06;;;;;;;12.68;3.63;;;8.10;62.60;;;;;;5140546;27;20043;-73
2021/04/04 04:10:32;;;;;;;7.85;2.60;;;8.10;63.30;;;;;;5122696;27;20169;-73
2021/04/04 04:12:58;;;;;;;8.90;3.25;;;8.10;62.70;;;;;;5088058;27;20047;-74
2021/04/04 04:15:24;;;;;;;6.68;2.88;;;8.10;62.70;;;;;;5106002;27;20046;-75
2021/04/04 04:17:50;;;;;;;8.68;2.65;;;8.10;62.90;;;;;;5140808;27;20047;-74
2021/04/04 04:20:16;;;;;;;9.85;3.38;;;8.10;63.00;;;;;;5121953;27;20042;-73
2021/04/04 04:22:41;;;;;;;11.88;3.10;;;8.10;63.10;;;;;;5105044;27;20072;-74
2021/04/04 04:25:07;;;;;;;12.57;2.65;;;8.10;63.00;;;;;;5121668;27;20043;-73
2021/04/04 04:27:34;;;;;;;8.00;2.65;;;8.10;63.20;;;;;;5105578;27;20047;-72
2021/04/04 04:30:00;;;;;;;8.93;2.70;;;8.10;63.20;;;;;;5121929;27;20051;-73
2021/04/04 04:32:26;;;;;;;8.98;2.63;;;8.10;63.30;;;;;;5105284;27;20047;-74
2021/04/04 04:34:52;;;;;;;10.20;3.05;;;8.10;63.10;;;;;;5122257;27;20077;-73
2021/04/04 04:37:18;;;;;;;8.10;2.63;;;8.10;63.10;;;;;;5104471;27;20126;-73
2021/04/04 04:39:43;;;;;;;11.23;2.95;;;8.10;63.20;;;;;;5088515;27;20098;-73
2021/04/04 04:42:10;;;;;;;9.57;2.78;;;8.10;63.20;;;;;;5120770;27;20499;-73
2021/04/04 04:44:36;;;;;;;9.60;2.45;;;8.10;63.40;;;;;;5140983;27;20043;-72
2021/04/04 04:47:01;;;;;;;12.15;2.70;;;8.10;63.30;;;;;;5122199;27;20043;-74
2021/04/04 04:49:27;;;;;;;7.22;2.70;;;8.10;63.40;;;;;;5122349;27;20039;-73
2021/04/04 04:51:53;;;;;;;9.30;2.88;;;8.10;63.50;;;;;;5122099;27;20043;-74
2021/04/04 04:54:19;;;;;;;8.05;2.90;;;8.10;63.50;;;;;;5121406;27;20103;-73
2021/04/04 04:56:45;;;;;;;9.32;2.65;;;8.00;63.60;;;;;;5121835;27;20050;-73
2021/04/04 04:59:11;;;;;;;8.40;2.45;;;8.10;63.80;;;;;;5105567;27;20410;-73
2021/04/04 05:01:46;;;;;;;7.25;2.58;;;8.00;63.70;;;;;;5123298;27;20048;-74
2021/04/04 05:04:12;;;;;;;9.15;2.22;;;8.00;63.90;;;;;;5141192;27;20058;-74
2021/04/04 05:06:38;;;;;;;8.90;2.60;;;8.10;63.90;;;;;;5141587;27;20039;-73
2021/04/04 05:09:06;;;;;;;9.73;2.60;;;8.00;64.70;;;;;;5122908;27;20035;-73
2021/04/04 05:11:39;;;;;;;8.15;2.35;;;8.00;63.90;;;;;;5142017;27;20071;-74
2021/04/04 05:14:05;;;;;;;9.02;2.20;;;8.10;64.00;;;;;;5106889;27;20066;-74
2021/04/04 05:16:31;;;;;;;8.75;2.75;;;8.00;63.90;;;;;;5141806;27;20091;-74
2021/04/04 05:18:56;;;;;;;7.93;2.85;;;8.00;63.90;;;;;;5123134;27;20039;-73
2021/04/04 05:21:29;;;;;;;10.93;3.33;;;8.10;63.90;;;;;;5122989;27;20050;-73
2021/04/04 05:23:59;;;;;;;6.82;2.50;;;8.10;64.20;;;;;;5141707;27;20169;-73
2021/04/04 05:26:26;;;;;;;7.65;2.53;;;8.00;64.00;;;;;;5141264;27;20053;-74
2021/04/04 05:28:53;;;;;;;6.25;2.53;;;8.00;64.00;;;;;;5133222;27;20043;-74
2021/04/04 05:31:22;;;;;;;10.00;3.05;;;8.00;64.10;;;;;;5131931;27;20054;-74
2021/04/04 05:33:48;;;;;;;10.75;2.40;;;8.00;64.00;;;;;;5085293;27;20042;-72
2021/04/04 05:36:14;;;;;;;5.65;2.08;;;8.00;64.00;;;;;;5101245;27;20035;-73
2021/04/04 05:38:40;;;;;;;8.68;2.88;;;8.00;64.00;;;;;;5122132;27;20055;-73
2021/04/04 05:41:06;;;;;;;10.05;3.03;;;8.00;64.00;;;;;;5105178;27;20092;-73
2021/04/04 05:43:36;;;;;;;9.75;2.42;;;8.10;64.20;;;;;;5140243;27;20495;-74
2021/04/04 05:46:08;;;;;;;8.13;2.17;;;8.00;64.10;;;;;;5122240;27;20046;-73
2021/04/04 05:48:55;;;;;;;9.23;2.67;;;8.00;64.20;;;;;;5105744;27;20050;-73
2021/04/04 05:51:51;;;;;;;6.80;2.28;;;8.00;64.30;;;;;;5139980;27;20475;-73
2021/04/04 05:54:37;;;;;;;8.88;2.58;;;8.00;64.30;;;;;;5121633;27;20046;-73
2021/04/04 05:57:03;;;;;;;7.10;2.30;;;8.00;64.20;;;;;;5125248;27;20047;-73
2021/04/04 05:59:34;;;;;;;7.32;2.95;;;8.00;64.10;;;;;;5121960;27;20047;-74
2021/04/04 06:02:03;;;;;;;10.40;2.60;;;8.00;64.20;;;;;;5117214;28;20069;-73
2021/04/04 06:04:49;;;;;;;7.13;2.25;;;8.00;64.30;;;;;;5137684;27;20035;-74
2021/04/04 06:07:53;;;;;;;11.77;3.33;;;8.00;64.30;;;;;;5115557;28;20043;-73
2021/04/04 06:10:22;;;;;;;11.57;3.17;;;8.00;64.20;;;;;;5097677;27;20055;-73
2021/04/04 06:13:18;;;;;;;7.82;2.70;;;8.00;64.00;;;;;;5100014;27;20067;-73
2021/04/04 06:15:52;;;;;;;7.93;3.55;;;8.00;64.10;;;;;;5093966;27;20043;-72
2021/04/04 06:18:35;;;;;;;6.68;2.58;;;8.00;64.00;;;;;;5140251;27;20045;-72
2021/04/04 06:21:27;;;;;;;11.40;3.42;;;8.00;64.00;;;;;;5122604;28;20051;-73
2021/04/04 06:23:57;;;;;;;10.00;3.15;;;8.00;63.90;;;;;;5072540;28;20153;-74
2021/04/04 06:26:53;;;;;;;7.32;3.08;;;8.10;63.80;;;;;;5098806;28;20089;-73
2021/04/04 06:29:25;;;;;;;14.00;3.28;;;8.10;63.80;;;;;;5101346;28;20051;-72
2021/04/04 06:32:04;;;;;;;14.18;4.13;;;8.10;63.90;;;;;;5085948;28;20100;-72
2021/04/04 06:34:40;;;;;;;11.10;3.78;;;8.10;63.80;;;;;;5102114;28;20060;-73
2021/04/04 06:37:25;;;;;;;7.85;3.60;;;8.10;63.70;;;;;;5117167;28;20051;-73
2021/04/04 06:40:05;;;;;;;9.93;3.58;;;8.10;63.60;;;;;;5122358;28;20075;-73
2021/04/04 06:42:49;;;;;;;11.80;3.28;;;8.10;63.60;;;;;;5134110;28;20073;-74
2021/04/04 06:45:26;;;;;;;12.48;4.13;;;8.10;63.50;;;;;;5121095;28;20073;-74
2021/04/04 06:48:14;;;;;;;7.95;3.80;;;8.20;63.40;;;;;;5113673;28;20055;-73
2021/04/04 06:50:49;;;;;;;9.10;3.78;;;8.20;63.40;;;;;;5120544;28;20048;-74
2021/04/04 06:53:34;;;;;;;14.43;4.60;;;8.20;63.30;;;;;;5089273;28;20047;-73
2021/04/04 06:56:08;;;;;;;11.18;4.85;;;8.20;63.30;;;;;;5109467;28;20047;-73
2021/04/04 06:58:43;;;;;;;11.40;5.32;;;8.20;62.80;;;;;;5096015;28;20055;-74
2021/04/04 07:01:18;;;;;;;10.75;5.15;;;8.20;62.70;;;;;;5110626;28;20027;-73
2021/04/04 07:03:45;;;;;;;12.30;5.63;;;8.20;62.50;;;;;;5140515;27;20039;-73
2021/04/04 07:06:27;;;;;;;13.85;5.53;;;8.20;62.20;;;;;;5125587;27;20043;-73
2021/04/04 07:09:23;;;;;;;12.43;5.90;;;8.20;62.10;;;;;;5144222;27;20552;-74
2021/04/04 07:12:10;;;;;;;13.50;5.95;;;8.20;62.00;;;;;;5102172;27;20448;-73
2021/04/04 07:14:46;;;;;;;12.88;4.95;;;8.30;61.80;;;;;;5108698;27;20039;-74
2021/04/04 07:17:40;;;;;;;12.43;5.55;;;8.30;61.70;;;;;;5143870;27;20373;-73
2021/04/04 07:20:22;;;;;;;11.07;5.60;;;8.30;61.50;;;;;;5095565;27;20047;-74
2021/04/04 07:23:15;;;;;;;13.80;5.80;;;8.30;61.60;;;;;;5124598;27;20482;-73
2021/04/04 07:25:52;;;;;;;10.90;6.05;;;8.30;61.60;;;;;;5142559;27;20054;-73
2021/04/04 07:28:36;;;;;;;12.35;5.85;;;8.30;61.50;;;;;;5124267;27;20153;-73
2021/04/04 07:31:09;;;;;;;11.85;5.90;;;8.30;61.40;;;;;;5142777;27;20047;-73
2021/04/04 07:33:57;;;;;;;11.32;5.10;;;8.30;61.20;;;;;;5108243;27;20108;-74
2021/04/04 07:36:40;;;;;;;12.13;5.93;;;8.40;61.40;;;;;;5124487;27;20035;-73
2021/04/04 07:39:45;;;;;;;14.13;5.30;;;8.40;61.10;;;;;;5114789;27;20114;-72
2021/04/04 07:42:21;;;;;;;13.55;5.57;;;8.40;61.10;;;;;;5148596;27;20043;-71
2021/04/04 07:44:52;;;;;;;;;;;8.40;61.00;;;;;;5153296;27;20058;-70
2021/04/04 07:47:53;;;;;;;15.18;5.95;;;8.40;61.10;;;;;;5155343;27;19915;-72
2021/04/04 07:50:55;;;;;;;14.75;6.55;;;8.40;60.90;;;;;;5117245;28;20051;-73
2021/04/04 07:53:43;;;;;;;11.95;6.22;;;8.50;60.70;;;;;;5119191;28;20047;-72
2021/04/04 07:56:44;;;;;;;12.98;5.95;;;8.50;60.70;;;;;;5105940;28;20055;-73
2021/04/04 07:59:19;;;;;;;15.00;6.32;;;8.50;60.70;;;;;;5096892;28;20048;-74
2021/04/04 08:01:52;;;;;;;13.45;5.82;;;8.60;60.70;;;;;;5110848;28;20392;-73
2021/04/04 08:04:33;;;;;;;14.77;6.25;;;8.60;60.60;;;;;;5111413;28;20156;-72
2021/04/04 08:07:25;;;;;;;11.95;5.93;;;8.60;60.70;;;;;;5094563;28;20062;-74
2021/04/04 08:10:07;;;;;;;15.93;6.05;;;8.60;60.60;;;;;;5051390;28;20083;-73
2021/04/04 08:12:49;;;;;;;15.18;6.78;;;8.60;60.60;;;;;;5101684;28;20403;-74
2021/04/04 08:15:42;;;;;;;16.42;7.18;;;8.60;60.50;;;;;;5082554;28;20052;-72
2021/04/04 08:18:08;;;;;;;13.48;6.68;;;8.70;60.40;;;;;;5082426;28;20075;-73
2021/04/04 08:20:48;;;;;;;12.07;6.60;;;8.70;60.40;;;;;;5077900;27;20108;-73
2021/04/04 08:23:29;;;;;;;17.02;8.00;;;8.70;60.40;;;;;;5086564;27;20035;-73
2021/04/04 08:26:06;;;;;;;15.55;6.55;;;8.80;60.40;;;;;;5093894;27;20047;-73
2021/04/04 08:28:39;;;;;;;16.77;7.93;;;8.80;60.50;;;;;;5104592;27;20376;-73
2021/04/04 08:31:12;;;;;;;16.77;7.85;;;8.80;60.50;;;;;;5078688;27;20039;-73
2021/04/04 08:33:44;;;;;;;14.00;6.57;;;8.80;60.30;;;;;;5094158;28;20039;-72
2021/04/04 08:36:10;;;;;;;14.45;5.68;;;8.80;60.30;;;;;;5078887;28;20110;-73
2021/04/04 08:38:40;;;;;;;15.05;7.40;;;8.90;60.30;;;;;;5084577;27;20464;-73
2021/04/04 08:41:06;;;;;;;15.05;7.05;;;8.90;60.30;;;;;;5082387;27;20035;-73
2021/04/04 08:43:33;;;;;;;15.23;6.30;;;8.90;60.30;;;;;;5114609;27;20134;-72
2021/04/04 08:45:59;;;;;;;11.90;7.20;;;9.00;60.30;;;;;;5098034;27;20395;-74
2021/04/04 08:48:24;;;;;;;15.38;8.35;;;8.90;60.20;;;;;;5114883;27;20118;-74
2021/04/04 08:50:51;;;;;;;12.35;6.38;;;9.00;60.20;;;;;;5114963;27;20471;-73
2021/04/04 08:53:30;;;;;;;16.23;7.88;;;9.00;60.10;;;;;;5098478;27;20066;-73
2021/04/04 08:55:55;;;;;;;16.63;7.05;;;9.10;60.20;;;;;;5115675;27;20076;-73
2021/04/04 08:58:25;;;;;;;16.05;7.32;;;9.10;60.10;;;;;;5133336;27;20043;-74
2021/04/04 09:00:51;;;;;;;15.43;8.05;;;9.10;60.00;;;;;;5098669;27;20440;-74
2021/04/04 09:03:21;;;;;;;14.23;6.93;;;9.20;60.00;;;;;;5098327;27;20043;-73
2021/04/04 09:05:47;;;;;;;15.75;7.05;;;9.20;60.00;;;;;;5133024;27;20094;-72
2021/04/04 09:08:14;;;;;;;14.32;7.25;;;9.20;59.80;;;;;;5064956;27;20099;-73
2021/04/04 09:10:41;;;;;;;15.63;7.60;;;9.20;59.70;;;;;;5114754;27;20050;-73
2021/04/04 09:13:11;;;;;;;13.93;7.18;;;9.30;59.70;;;;;;5133190;27;20039;-73
2021/04/04 09:15:56;;;;;;;12.25;6.97;;;9.40;59.60;;;;;;5114565;27;20119;-73
2021/04/04 09:18:22;;;;;;;13.60;7.53;;;9.50;59.40;;;;;;5098416;27;20122;-73
2021/04/04 09:20:48;;;;;;;12.95;6.93;;;9.50;59.40;;;;;;5114557;27;20058;-74
2021/04/04 09:23:17;;;;;;;14.07;7.10;;;9.60;59.40;;;;;;5114879;27;20046;-74
2021/04/04 09:25:53;;;;;;;14.27;7.00;;;9.60;59.20;;;;;;5114266;27;20459;-74
2021/04/04 09:28:20;;;;;;;13.57;7.18;;;9.70;59.30;;;;;;5097060;27;20066;-73
2021/04/04 09:30:46;;;;;;;15.23;7.72;;;9.80;59.20;;;;;;5114230;27;20043;-73
2021/04/04 09:33:19;;;;;;;12.90;6.93;;;9.80;59.00;;;;;;5134951;27;20046;-73
2021/04/04 09:35:49;;;;;;;14.10;7.07;;;9.80;58.90;;;;;;5097608;27;20101;-73
2021/04/04 09:38:15;;;;;;;16.45;7.10;;;9.90;58.90;;;;;;5097704;27;20161;-74
2021/04/04 09:40:42;;;;;;;14.95;7.47;;;9.90;58.80;;;;;;5113598;27;20066;-73
2021/04/04 09:43:10;;;;;;;14.80;6.82;;;10.00;58.70;;;;;;5132356;27;20089;-73
2021/04/04 09:45:36;;;;;;;17.83;7.47;;;10.00;58.60;;;;;;5113670;27;20121;-73
2021/04/04 09:48:21;;;;;;;14.10;6.82;;;10.00;58.60;;;;;;5132590;27;20138;-73
2021/04/04 09:51:05;;;;;;;16.48;7.30;;;10.00;58.50;;;;;;5113811;27;20130;-73
2021/04/04 09:53:57;;;;;;;13.77;6.68;;;10.10;58.60;;;;;;5116139;27;20104;-73
2021/04/04 09:56:30;;;;;;;14.77;8.82;;;10.10;58.50;;;;;;5122705;27;20137;-72
2021/04/04 09:58:56;;;;;;;17.05;8.35;;;10.20;58.50;;;;;;5113339;27;20042;-74
2021/04/04 10:01:22;;;;;;;17.02;8.55;;;10.20;58.40;;;;;;5132343;27;20043;-74
2021/04/04 10:04:03;;;;;;;15.50;6.43;;;10.20;59.00;;;;;;5131653;27;20497;-74
2021/04/04 10:06:30;;;;;;;13.45;6.30;;;10.30;58.20;;;;;;5097335;27;20490;-74
2021/04/04 10:08:58;;;;;;;13.05;7.65;;;10.30;58.20;;;;;;5132124;27;20339;-74
2021/04/04 10:11:24;;;;;;;16.50;7.90;;;10.30;58.80;;;;;;5132134;27;20046;-73
2021/04/04 10:13:50;;;;;;;12.38;6.63;;;10.30;58.10;;;;;;5131779;27;20042;-73
2021/04/04 10:16:22;;;;;;;14.02;8.18;;;10.40;58.20;;;;;;5132506;27;20039;-73
2021/04/04 10:19:01;;;;;;;;;;;10.40;58.10;;;;;;5113757;28;20063;-74
2021/04/04 10:21:27;;;;;;;16.10;7.50;;;10.40;58.00;;;;;;5113969;28;19919;-74
2021/04/04 10:23:53;;;;;;;10.98;6.75;;;10.40;58.20;;;;;;5113336;28;20440;-73
2021/04/04 10:26:22;;;;;;;14.40;7.15;;;10.40;58.10;;;;;;5132309;27;20047;-73
2021/04/04 10:28:49;;;;;;;16.08;7.15;;;10.40;58.10;;;;;;5096520;28;20087;-73
2021/04/04 10:31:16;;;;;;;17.33;7.45;;;10.40;58.10;;;;;;5132371;28;20038;-73
2021/04/04 10:33:42;;;;;;;14.98;7.07;;;10.40;58.10;;;;;;5131556;28;20046;-74
2021/04/04 10:36:14;;;;;;;15.32;7.45;;;10.40;58.20;;;;;;5113790;28;20387;-73
2021/04/04 10:38:40;;;;;;;;;;;10.40;58.10;;;;;;5113585;28;20425;-73
2021/04/04 10:41:06;;;;;;;11.38;6.90;;;10.40;58.10;;;;;;5135683;27;19919;-73
2021/04/04 10:43:42;;;;;;;12.18;6.10;;;10.50;59.00;;;;;;5118164;27;20040;-74
2021/04/04 10:46:08;;;;;;;13.85;6.47;;;10.50;58.20;;;;;;5136180;27;20046;-74
2021/04/04 10:48:36;;;;;;;12.88;6.30;;;10.50;58.20;;;;;;5136328;27;20073;-72
2021/04/04 10:51:02;;;;;;;14.73;7.22;;;10.60;58.10;;;;;;5117220;27;20390;-73
2021/04/04 10:53:28;;;;;;;18.95;8.35;;;10.50;58.10;;;;;;5137419;27;20050;-74
2021/04/04 10:55:54;;;;;;;16.67;7.32;;;10.50;58.10;;;;;;5136012;27;20047;-74
2021/04/04 10:58:26;;;;;;;14.52;6.60;;;10.50;58.10;;;;;;5117866;27;20425;-74
2021/04/04 11:00:53;;;;;;;12.00;7.57;;;10.60;58.10;;;;;;5118025;27;20463;-74
2021/04/04 11:03:19;;;;;;;14.10;6.75;;;10.60;58.20;;;;;;5117960;27;20069;-73
2021/04/04 11:05:45;;;;;;;14.30;6.57;;;10.70;58.20;;;;;;5116924;27;20430;-73
2021/04/04 11:08:11;;;;;;;11.70;6.43;;;10.80;58.10;;;;;;5117829;27;20039;-74
2021/04/04 11:10:37;;;;;;;14.98;7.50;;;10.80;58.00;;;;;;5135981;27;20043;-74
2021/04/04 11:13:03;;;;;;;18.10;7.50;;;10.80;57.80;;;;;;5135199;27;20051;-74
2021/04/04 11:15:30;;;;;;;16.73;7.43;;;10.90;57.80;;;;;;5117308;27;20118;-74
2021/04/04 11:17:57;;;;;;;12.70;6.97;;;10.90;57.80;;;;;;5117048;27;20093;-74
2021/04/04 11:20:23;;;;;;;11.63;5.80;;;10.90;57.70;;;;;;5100606;27;20407;-74
2021/04/04 11:22:48;;;;;;;13.07;6.53;;;11.00;57.60;;;;;;5116796;27;20046;-74
2021/04/04 11:25:16;;;;;;;12.73;6.80;;;11.00;57.50;;;;;;5117204;27;20043;-74
2021/04/04 11:27:44;;;;;;;11.77;6.70;;;11.00;57.40;;;;;;5116525;27;20043;-74
2021/04/04 11:30:15;;;;;;;12.75;5.72;;;11.00;57.40;;;;;;5100521;27;20039;-74
2021/04/04 11:32:45;;;;;;;11.80;5.32;;;11.00;57.20;;;;;;5117050;27;20432;-74
2021/04/04 11:35:13;;;;;;;14.35;6.75;;;11.10;57.20;;;;;;5117555;27;20045;-74
2021/04/04 11:37:40;;;;;;;10.07;6.10;;;11.10;56.90;;;;;;5116484;27;20415;-74
2021/04/04 11:40:25;;;;;;;13.07;6.05;;;11.20;56.70;;;;;;5134543;27;20134;-73
2021/04/04 11:43:12;;;;;;;11.88;6.05;;;11.20;56.00;;;;;;5116530;27;20043;-73
2021/04/04 11:45:38;;;;;;;14.85;5.65;;;11.20;56.20;;;;;;5135359;27;20051;-73
2021/04/04 11:48:26;;;;;;;12.63;6.40;;;11.20;56.20;;;;;;5099366;27;20340;-74
2021/04/04 11:50:52;;;;;;;14.32;5.68;;;11.20;56.10;;;;;;5115544;27;20056;-74
2021/04/04 11:53:42;;;;;;;13.80;6.32;;;11.20;56.20;;;;;;5116373;27;20491;-73
2021/04/04 11:56:08;;;;;;;14.68;7.40;;;11.30;56.10;;;;;;5134469;27;20043;-74
2021/04/04 11:58:34;;;;;;;13.38;5.55;;;11.30;56.00;;;;;;5116829;27;20043;-73
2021/04/04 12:01:00;;;;;;;14.80;6.05;;;11.30;56.10;;;;;;5098987;27;20483;-74
2021/04/04 12:03:27;;;;;;;14.60;6.95;;;11.30;56.20;;;;;;5134869;27;20092;-73
2021/04/04 12:05:52;;;;;;;12.57;6.22;;;11.30;56.20;;;;;;5099277;27;20407;-73
2021/04/04 12:08:27;;;;;;;15.70;7.20;;;11.30;56.20;;;;;;5116417;27;20043;-74
2021/04/04 12:10:52;;;;;;;16.00;7.53;;;11.30;56.30;;;;;;5099158;27;20056;-72
2021/04/04 12:13:18;;;;;;;13.73;7.07;;;11.30;56.40;;;;;;5116017;27;20043;-74
2021/04/04 12:15:44;;;;;;;12.23;6.32;;;11.30;56.50;;;;;;5116521;27;20510;-73
2021/04/04 12:18:09;;;;;;;16.50;6.65;;;11.30;56.50;;;;;;5133845;27;20064;-74
2021/04/04 12:20:35;;;;;;;12.25;6.57;;;11.40;56.60;;;;;;5115940;27;20043;-73
2021/04/04 12:23:01;;;;;;;12.88;7.20;;;11.40;56.60;;;;;;5134078;27;20046;-74
2021/04/04 12:25:28;;;;;;;12.18;6.22;;;11.30;56.40;;;;;;5134325;27;20043;-73
2021/04/04 12:27:58;;;;;;;9.98;5.57;;;11.30;56.20;;;;;;5133504;27;20480;-74
2021/04/04 12:30:30;;;;;;;11.95;5.70;;;11.30;56.10;;;;;;5134311;27;20043;-73
2021/04/04 12:33:03;;;;;;;13.65;5.32;;;11.30;56.00;;;;;;5133717;27;20058;-74
2021/04/04 12:35:29;;;;;;;17.65;5.88;;;11.30;55.80;;;;;;5134333;27;20049;-73
2021/04/04 12:37:55;;;;;;;10.70;4.70;;;11.30;55.90;;;;;;5133585;27;20043;-74
2021/04/04 12:40:21;;;;;;;10.15;5.45;;;11.30;56.00;;;;;;5115624;27;20054;-73
2021/04/04 12:42:47;;;;;;;9.23;4.45;;;11.30;55.90;;;;;;5115907;27;20066;-73
2021/04/04 12:45:13;;;;;;;10.82;5.13;;;11.40;55.80;;;;;;5133319;27;20411;-73
2021/04/04 12:47:40;;;;;;;12.70;5.13;;;11.40;56.50;;;;;;5134169;27;20039;-74
2021/04/04 12:50:16;;;;;;;11.27;5.22;;;11.50;55.80;;;;;;5115282;27;20190;-73
2021/04/04 12:52:47;;;;;;;12.30;5.10;;;11.50;56.50;;;;;;5134116;27;20043;-73
2021/04/04 12:55:23;;;;;;;11.75;4.53;;;11.50;55.70;;;;;;5133410;27;20067;-74
2021/04/04 12:57:56;;;;;;;13.50;4.68;;;11.50;55.70;;;;;;5133794;27;20035;-74
2021/04/04 13:00:26;;;;;;;13.00;5.53;;;11.60;55.60;;;;;;5133928;27;20043;-74
2021/04/04 13:03:03;;;;;;;12.68;5.28;;;11.60;55.70;;;;;;5114219;27;20039;-73
2021/04/04 13:05:51;;;;;;;10.25;5.45;;;11.60;55.60;;;;;;5133726;27;20472;-73
2021/04/04 13:08:21;;;;;;;11.10;5.72;;;11.50;55.50;;;;;;5115322;27;20064;-74